Time;durP1;ratioP1;P1;durP2;ratioP2;P2;SDS_P1;SDS_P2;PMS_P1;PMS_P2;Temp;Humidity;BMP_temperature;BMP_pressure;BME280_temperature;BME280_humidity;BME280_pressure;Samples;Min_cycle;Max_cycle;Signal;HPM_P1;HPM_P2
2023/05/22 00:02:21;;;;;;;5.90;3.60;;;16.10;99.90;;;;;;5114827;28;20451;-88
2023/05/22 00:04:48;;;;;;;7.93;4.70;;;16.10;99.90;;;;;;5114646;28;20463;-88
2023/05/22 00:07:15;;;;;;;3.43;3.10;;;16.10;99.90;;;;;;5114463;28;20498;-88
2023/05/22 00:09:41;;;;;;;8.10;4.20;;;16.00;99.90;;;;;;5114350;28;20435;-88
2023/05/22 00:12:09;;;;;;;6.90;4.30;;;16.10;99.90;;;;;;5114334;28;20444;-88
2023/05/22 00:14:36;;;;;;;4.10;3.50;;;16.00;99.90;;;;;;5114357;28;20468;-88
2023/05/22 00:17:03;;;;;;;8.87;4.20;;;15.90;99.90;;;;;;5114686;28;20444;-88
2023/05/22 00:19:30;;;;;;;6.10;4.30;;;15.90;99.90;;;;;;5114384;28;20439;-88
2023/05/22 00:21:56;;;;;;;7.57;4.17;;;15.90;99.90;;;;;;5114573;28;20440;-88
2023/05/22 00:24:23;;;;;;;8.30;4.83;;;15.80;99.90;;;;;;5114753;28;20813;-88
2023/05/22 00:26:50;;;;;;;6.43;4.00;;;15.80;99.90;;;;;;5114176;28;21073;-88
2023/05/22 00:29:18;;;;;;;5.40;3.80;;;15.80;99.90;;;;;;5114649;28;20459;-88
2023/05/22 00:31:45;;;;;;;6.87;3.70;;;15.70;99.90;;;;;;5114166;28;20450;-88
2023/05/22 00:34:11;;;;;;;6.50;3.80;;;15.70;99.90;;;;;;5114419;28;20470;-88
2023/05/22 00:36:38;;;;;;;6.23;3.20;;;15.60;99.90;;;;;;5114121;28;20935;-88
2023/05/22 00:39:05;;;;;;;7.43;3.63;;;15.60;99.90;;;;;;5114780;28;20934;-88
2023/05/22 00:41:32;;;;;;;10.20;4.70;;;15.60;99.90;;;;;;5114322;28;20454;-88
2023/05/22 00:43:59;;;;;;;9.53;3.87;;;15.60;99.90;;;;;;5114128;28;20451;-88
2023/05/22 00:46:27;;;;;;;5.33;3.50;;;15.60;99.90;;;;;;5114133;28;20486;-88
2023/05/22 00:48:54;;;;;;;7.37;4.40;;;15.50;99.90;;;;;;5114342;28;20454;-88
2023/05/22 00:51:21;;;;;;;6.97;3.80;;;15.60;99.90;;;;;;5114216;28;20443;-88
2023/05/22 00:53:49;;;;;;;6.40;4.73;;;15.50;99.90;;;;;;5114122;28;20452;-88
2023/05/22 00:56:16;;;;;;;7.77;4.10;;;15.50;99.90;;;;;;5114160;28;20813;-88
2023/05/22 00:58:44;;;;;;;8.20;4.17;;;15.50;99.90;;;;;;5114103;28;20447;-88
2023/05/22 01:01:11;;;;;;;5.90;4.03;;;15.40;99.90;;;;;;5113987;28;20811;-88
2023/05/22 01:03:43;;;;;;;7.27;3.43;;;15.40;99.90;;;;;;5114094;28;20463;-88
2023/05/22 01:06:11;;;;;;;8.07;3.73;;;15.40;99.90;;;;;;5114351;28;20527;-88
2023/05/22 01:08:38;;;;;;;5.30;3.23;;;15.30;99.90;;;;;;5114147;28;20455;-88
2023/05/22 01:11:12;;;;;;;4.87;3.63;;;15.40;99.90;;;;;;5114095;28;20447;-88
2023/05/22 01:13:45;;;;;;;13.23;5.30;;;15.30;99.90;;;;;;5113659;28;20902;-88
2023/05/22 01:16:22;;;;;;;6.27;4.03;;;15.30;99.90;;;;;;5114066;28;20811;-88
2023/05/22 01:19:02;;;;;;;15.53;3.90;;;15.30;99.90;;;;;;5113981;28;20431;-88
2023/05/22 01:21:38;;;;;;;6.17;4.20;;;15.20;99.90;;;;;;5116501;28;20530;-88
2023/05/22 01:24:34;;;;;;;6.60;4.03;;;15.20;99.90;;;;;;5117734;28;20497;-88
2023/05/22 01:27:41;;;;;;;8.20;4.27;;;15.20;99.90;;;;;;5117514;28;20464;-87
2023/05/22 01:30:28;;;;;;;6.23;4.10;;;15.10;99.90;;;;;;5117581;28;20451;-88
2023/05/22 01:32:58;;;;;;;6.97;4.63;;;15.00;99.90;;;;;;5118121;28;20879;-88
2023/05/22 01:35:26;;;;;;;5.80;4.57;;;15.00;99.90;;;;;;5117462;28;20463;-88
2023/05/22 01:37:54;;;;;;;7.70;3.73;;;15.00;99.90;;;;;;5117422;28;20439;-88
2023/05/22 01:40:21;;;;;;;5.10;3.30;;;14.90;99.90;;;;;;5117399;28;20807;-88
2023/05/22 01:42:49;;;;;;;9.53;4.77;;;14.90;99.90;;;;;;5117532;28;20439;-88
2023/05/22 01:45:16;;;;;;;8.20;3.53;;;14.90;99.90;;;;;;5117194;28;20482;-88
2023/05/22 01:47:42;;;;;;;14.43;3.10;;;14.90;99.90;;;;;;5117181;28;20479;-88
2023/05/22 01:50:11;;;;;;;6.10;3.97;;;15.00;99.90;;;;;;5117028;28;20450;-87
2023/05/22 01:52:51;;;;;;;4.37;3.23;;;15.00;99.90;;;;;;5117132;28;20428;-88
2023/05/22 01:55:26;;;;;;;10.57;4.10;;;14.90;99.90;;;;;;5117209;28;20478;-88
2023/05/22 01:57:59;;;;;;;5.50;3.40;;;14.90;99.90;;;;;;5117533;28;20426;-88
2023/05/22 02:00:27;;;;;;;8.80;4.97;;;14.90;99.90;;;;;;5117676;28;20428;-88
2023/05/22 02:03:00;;;;;;;9.07;4.43;;;14.90;99.90;;;;;;5116640;28;20471;-87
2023/05/22 02:05:31;;;;;;;5.27;3.43;;;14.90;99.90;;;;;;5116940;28;20524;-87
2023/05/22 02:08:00;;;;;;;3.50;3.10;;;14.90;99.90;;;;;;5116850;28;20500;-88
2023/05/22 02:10:29;;;;;;;5.37;3.53;;;14.90;99.90;;;;;;5116807;28;20447;-88
2023/05/22 02:12:56;;;;;;;6.00;3.83;;;14.90;99.90;;;;;;5116461;28;20478;-88
2023/05/22 02:15:23;;;;;;;3.50;3.10;;;14.90;99.90;;;;;;5116670;28;20842;-88
2023/05/22 02:17:51;;;;;;;7.60;4.37;;;14.90;99.90;;;;;;5116604;28;20447;-88
2023/05/22 02:20:18;;;;;;;7.10;3.73;;;14.90;99.90;;;;;;5116229;28;20456;-87
2023/05/22 02:22:48;;;;;;;8.13;4.50;;;14.90;99.90;;;;;;5116167;27;20455;-88
2023/05/22 02:25:15;;;;;;;10.00;3.93;;;14.90;99.90;;;;;;5116141;28;20471;-88
2023/05/22 02:27:42;;;;;;;8.00;4.13;;;14.90;99.90;;;;;;5116421;28;20479;-87
2023/05/22 02:30:10;;;;;;;5.60;4.03;;;15.00;99.90;;;;;;5116420;28;20436;-88
2023/05/22 02:32:38;;;;;;;5.00;3.50;;;15.00;99.90;;;;;;5116353;28;20444;-88
2023/05/22 02:35:05;;;;;;;7.70;3.47;;;15.00;99.90;;;;;;5115898;28;20456;-88
2023/05/22 02:37:32;;;;;;;6.70;3.30;;;15.10;99.90;;;;;;5116076;28;20444;-87
2023/05/22 02:40:00;;;;;;;8.40;4.00;;;15.10;99.90;;;;;;5116215;28;20444;-88
2023/05/22 02:42:27;;;;;;;4.27;3.40;;;15.20;99.90;;;;;;5115747;28;20538;-88
2023/05/22 02:44:53;;;;;;;9.37;4.10;;;15.20;99.90;;;;;;5115949;28;20466;-88
2023/05/22 02:47:20;;;;;;;7.07;3.30;;;15.20;99.90;;;;;;5115911;28;20487;-88
2023/05/22 02:49:47;;;;;;;12.70;4.97;;;15.20;99.90;;;;;;5115991;28;20947;-86
2023/05/22 02:52:14;;;;;;;7.83;3.10;;;15.20;99.90;;;;;;5115944;28;20447;-88
2023/05/22 02:54:40;;;;;;;6.27;3.97;;;15.20;99.90;;;;;;5115932;28;20827;-88
2023/05/22 02:57:08;;;;;;;8.33;3.57;;;15.20;99.90;;;;;;5115562;28;20442;-88
2023/05/22 02:59:35;;;;;;;9.90;5.07;;;15.20;99.90;;;;;;5115738;28;20463;-88
2023/05/22 03:02:02;;;;;;;4.97;3.50;;;15.20;99.90;;;;;;5115753;28;20497;-88
2023/05/22 03:04:29;;;;;;;6.70;4.17;;;15.20;99.90;;;;;;5115619;28;20494;-88
2023/05/22 03:06:56;;;;;;;8.60;4.33;;;15.20;99.90;;;;;;5115531;28;20478;-87
2023/05/22 03:09:23;;;;;;;4.50;3.00;;;15.20;99.90;;;;;;5115539;28;20435;-88
2023/05/22 03:11:49;;;;;;;6.40;3.37;;;15.30;99.90;;;;;;5115708;28;20454;-88
2023/05/22 03:14:18;;;;;;;4.83;3.13;;;15.30;99.90;;;;;;5115195;28;21005;-88
2023/05/22 03:16:45;;;;;;;9.37;4.13;;;15.40;99.90;;;;;;5115536;28;20447;-88
2023/05/22 03:19:13;;;;;;;9.10;5.33;;;15.30;99.90;;;;;;5115478;28;20456;-88
2023/05/22 03:21:40;;;;;;;5.23;4.73;;;15.20;99.90;;;;;;5115484;28;20806;-88
2023/05/22 03:24:07;;;;;;;8.87;4.73;;;15.20;99.90;;;;;;5115377;28;20550;-88
2023/05/22 03:26:34;;;;;;;4.70;2.63;;;15.30;99.90;;;;;;5115237;28;20451;-88
2023/05/22 03:29:01;;;;;;;6.50;3.50;;;15.20;99.90;;;;;;5114971;28;20479;-88
2023/05/22 03:31:31;;;;;;;5.83;3.30;;;15.20;99.90;;;;;;5115310;28;20823;-88
2023/05/22 03:33:57;;;;;;;6.80;3.40;;;15.20;99.90;;;;;;5115521;28;20520;-88
2023/05/22 03:36:24;;;;;;;4.87;3.43;;;15.20;99.90;;;;;;5115207;28;20447;-88
2023/05/22 03:38:51;;;;;;;7.43;2.97;;;15.20;99.90;;;;;;5115223;28;20504;-88
2023/05/22 03:41:18;;;;;;;8.30;4.70;;;15.20;99.90;;;;;;5115132;28;20447;-88
2023/05/22 03:43:46;;;;;;;6.23;4.83;;;15.20;99.90;;;;;;5114680;28;20463;-88
2023/05/22 03:46:13;;;;;;;5.33;4.10;;;15.20;99.90;;;;;;5115138;28;20459;-88
2023/05/22 03:48:41;;;;;;;6.83;3.50;;;15.20;99.90;;;;;;5114600;28;20474;-88
2023/05/22 03:51:08;;;;;;;7.43;3.70;;;15.20;99.90;;;;;;5115175;28;20442;-88
2023/05/22 03:53:34;;;;;;;6.17;3.67;;;15.10;99.90;;;;;;5115143;28;20467;-87
2023/05/22 03:56:01;;;;;;;6.00;3.87;;;15.10;99.90;;;;;;5115125;28;20439;-87
2023/05/22 03:58:28;;;;;;;6.50;3.80;;;15.10;99.90;;;;;;5114918;28;20448;-88
2023/05/22 04:00:57;;;;;;;8.57;4.17;;;15.10;99.90;;;;;;5114809;28;20462;-87
2023/05/22 04:03:24;;;;;;;5.97;4.50;;;15.00;99.90;;;;;;5114805;28;20485;-88
2023/05/22 04:05:52;;;;;;;7.60;4.03;;;15.10;99.90;;;;;;5114764;28;20447;-88
2023/05/22 04:08:19;;;;;;;9.30;4.10;;;15.10;99.90;;;;;;5114702;28;20519;-87
2023/05/22 04:10:47;;;;;;;7.60;3.80;;;15.10;99.90;;;;;;5114657;28;20435;-88
2023/05/22 04:13:14;;;;;;;6.87;3.97;;;15.10;99.90;;;;;;5114564;28;20490;-88
2023/05/22 04:15:42;;;;;;;7.63;3.47;;;15.10;99.90;;;;;;5114653;28;20462;-88
2023/05/22 04:18:09;;;;;;;9.57;4.80;;;15.10;99.90;;;;;;5114445;28;20928;-88
2023/05/22 04:20:35;;;;;;;9.10;4.77;;;15.20;99.90;;;;;;5114568;28;20456;-88
2023/05/22 04:23:06;;;;;;;5.53;3.70;;;15.10;99.90;;;;;;5114671;28;20501;-88
2023/05/22 04:25:33;;;;;;;8.50;3.53;;;15.20;99.90;;;;;;5115581;28;20467;-88
2023/05/22 04:28:01;;;;;;;6.07;3.40;;;15.20;99.90;;;;;;5114394;28;20471;-88
2023/05/22 04:30:28;;;;;;;7.77;4.40;;;15.20;99.90;;;;;;5114534;28;20529;-88
2023/05/22 04:32:55;;;;;;;6.43;4.20;;;15.30;99.90;;;;;;5114650;28;20496;-88
2023/05/22 04:35:22;;;;;;;6.07;3.23;;;15.30;99.90;;;;;;5114497;28;20460;-88
2023/05/22 04:37:49;;;;;;;7.27;3.63;;;15.30;99.90;;;;;;5114493;28;20448;-88
2023/05/22 04:40:17;;;;;;;5.53;3.27;;;15.30;99.90;;;;;;5114643;28;20462;-86
2023/05/22 04:42:44;;;;;;;8.30;4.60;;;15.40;99.90;;;;;;5114598;28;20450;-88
2023/05/22 04:45:12;;;;;;;6.97;4.07;;;15.40;99.90;;;;;;5114708;28;20516;-88
2023/05/22 04:47:40;;;;;;;7.33;4.10;;;15.50;99.90;;;;;;5114707;28;20897;-88
2023/05/22 04:50:08;;;;;;;5.37;3.37;;;15.60;99.90;;;;;;5114257;28;20939;-88
2023/05/22 04:52:34;;;;;;;14.83;4.37;;;15.60;99.90;;;;;;5114340;28;20462;-88
2023/05/22 04:55:02;;;;;;;7.80;4.63;;;15.70;99.90;;;;;;5114599;28;20549;-87
2023/05/22 04:57:30;;;;;;;5.93;4.80;;;15.70;99.90;;;;;;5118057;28;20962;-88
2023/05/22 04:59:57;;;;;;;11.10;4.73;;;15.80;99.90;;;;;;5117872;28;20450;-88
2023/05/22 05:02:23;;;;;;;6.30;4.07;;;15.90;99.90;;;;;;5117986;28;21042;-88
2023/05/22 05:04:51;;;;;;;6.30;4.60;;;16.00;99.90;;;;;;5118189;28;20464;-88
2023/05/22 05:07:18;;;;;;;5.90;4.10;;;16.10;99.90;;;;;;5118205;28;20465;-88
2023/05/22 05:09:45;;;;;;;7.17;4.50;;;16.20;99.90;;;;;;5118085;28;20440;-88
2023/05/22 05:12:12;;;;;;;4.70;3.93;;;16.30;99.90;;;;;;5117884;28;20938;-88
2023/05/22 05:14:40;;;;;;;4.37;3.23;;;16.40;99.90;;;;;;5117831;28;20838;-88
2023/05/22 05:17:06;;;;;;;5.77;3.93;;;16.50;99.90;;;;;;5118728;28;20447;-88
2023/05/22 05:19:34;;;;;;;7.67;4.03;;;16.50;99.90;;;;;;5118032;28;20435;-88
2023/05/22 05:22:01;;;;;;;7.77;4.03;;;16.60;99.90;;;;;;5117868;28;20469;-88
2023/05/22 05:24:27;;;;;;;5.93;3.57;;;16.60;99.90;;;;;;5117762;28;20471;-88
2023/05/22 05:26:54;;;;;;;5.33;3.40;;;16.60;99.90;;;;;;5117877;28;20450;-88
2023/05/22 05:29:21;;;;;;;8.10;4.20;;;16.70;99.90;;;;;;5117301;28;20474;-88
2023/05/22 05:31:49;;;;;;;5.27;3.90;;;16.80;99.90;;;;;;5117579;28;20474;-88
2023/05/22 05:34:16;;;;;;;6.60;4.27;;;16.90;99.90;;;;;;5117580;28;20466;-88
2023/05/22 05:36:43;;;;;;;5.90;3.63;;;17.00;99.90;;;;;;5117472;28;20442;-88
2023/05/22 05:39:10;;;;;;;8.63;4.77;;;17.00;99.90;;;;;;5117463;28;20439;-88
2023/05/22 05:41:37;;;;;;;5.70;3.60;;;17.10;99.90;;;;;;5117368;28;20442;-88
2023/05/22 05:44:04;;;;;;;8.37;5.07;;;17.20;99.90;;;;;;5117024;28;20467;-88
2023/05/22 05:46:30;;;;;;;6.40;5.23;;;17.30;99.90;;;;;;5117098;28;20957;-88
2023/05/22 05:48:59;;;;;;;7.57;5.07;;;17.50;99.90;;;;;;5117154;28;20478;-88
2023/05/22 05:51:26;;;;;;;7.47;5.17;;;17.50;99.90;;;;;;5117187;28;20444;-88
2023/05/22 05:53:53;;;;;;;8.53;4.87;;;17.60;99.90;;;;;;5117077;28;20463;-88
2023/05/22 05:56:20;;;;;;;6.00;3.90;;;17.60;99.90;;;;;;5116877;28;20439;-88
2023/05/22 05:58:46;;;;;;;10.73;5.50;;;17.80;99.90;;;;;;5117187;28;20508;-88
2023/05/22 06:01:13;;;;;;;7.03;4.17;;;17.90;99.90;;;;;;5117216;28;20451;-89
2023/05/22 06:03:40;;;;;;;6.73;4.37;;;18.10;99.90;;;;;;5117006;28;20452;-88
2023/05/22 06:06:09;;;;;;;8.30;4.90;;;18.30;99.90;;;;;;5116931;28;20470;-88
2023/05/22 06:08:37;;;;;;;8.60;5.90;;;18.40;99.90;;;;;;5116968;28;20478;-88
2023/05/22 06:11:04;;;;;;;7.20;4.60;;;18.50;99.90;;;;;;5117102;28;20451;-89
2023/05/22 06:13:30;;;;;;;8.20;5.10;;;18.60;99.90;;;;;;5116403;28;20489;-88
2023/05/22 06:15:57;;;;;;;5.43;4.20;;;18.90;99.90;;;;;;5116587;28;20441;-89
2023/05/22 06:18:24;;;;;;;7.40;4.70;;;19.20;99.90;;;;;;5116947;27;20449;-89
2023/05/22 06:20:51;;;;;;;8.87;4.90;;;19.60;99.90;;;;;;5116729;28;20450;-87
2023/05/22 06:23:20;;;;;;;6.00;4.07;;;19.80;99.90;;;;;;5116751;27;20447;-89
2023/05/22 06:25:47;;;;;;;8.40;5.00;;;20.00;99.90;;;;;;5116830;28;20451;-88
2023/05/22 06:28:14;;;;;;;6.00;4.30;;;20.10;99.90;;;;;;5116686;28;20474;-88
2023/05/22 06:30:40;;;;;;;7.67;4.80;;;20.20;99.90;;;;;;5116581;28;20442;-89
2023/05/22 06:33:07;;;;;;;4.20;3.43;;;20.30;99.90;;;;;;5116599;28;20443;-89
2023/05/22 06:35:34;;;;;;;5.80;4.20;;;20.40;99.90;;;;;;5116386;28;20424;-88
2023/05/22 06:38:01;;;;;;;7.70;3.70;;;20.40;99.90;;;;;;5116282;28;20474;-88
2023/05/22 06:40:29;;;;;;;8.00;4.37;;;20.30;99.90;;;;;;5116711;28;20795;-88
2023/05/22 06:42:57;;;;;;;6.30;4.27;;;20.30;99.90;;;;;;5116293;28;20439;-88
2023/05/22 06:45:24;;;;;;;5.87;4.17;;;20.10;99.90;;;;;;5116289;28;20462;-88
2023/05/22 06:47:52;;;;;;;6.70;4.97;;;19.90;99.90;;;;;;5116272;28;20448;-88
2023/05/22 06:50:19;;;;;;;10.27;4.77;;;19.80;99.90;;;;;;5116120;28;20447;-88
2023/05/22 06:52:46;;;;;;;5.97;3.90;;;19.50;99.90;;;;;;5115944;28;20443;-88
2023/05/22 06:55:12;;;;;;;6.07;3.70;;;19.30;99.90;;;;;;5115495;28;20469;-88
2023/05/22 06:57:41;;;;;;;11.07;4.90;;;19.10;99.90;;;;;;5115668;28;20451;-88
2023/05/22 07:00:11;;;;;;;5.67;4.40;;;18.90;99.90;;;;;;5115806;28;20444;-88
2023/05/22 07:02:38;;;;;;;9.03;4.67;;;18.70;99.90;;;;;;5116389;28;20518;-88
2023/05/22 07:05:05;;;;;;;8.23;4.50;;;18.60;99.90;;;;;;5115362;28;20483;-88
2023/05/22 07:07:32;;;;;;;7.43;4.87;;;18.60;99.90;;;;;;5115694;28;20820;-88
2023/05/22 07:09:59;;;;;;;7.03;4.07;;;18.50;99.90;;;;;;5115430;28;20486;-87
2023/05/22 07:12:27;;;;;;;6.97;3.93;;;18.40;99.90;;;;;;5115246;28;20578;-88
2023/05/22 07:14:55;;;;;;;7.43;4.70;;;18.40;99.90;;;;;;5115383;28;20993;-88
2023/05/22 07:17:22;;;;;;;5.47;4.03;;;18.50;99.90;;;;;;5115202;28;21004;-87
2023/05/22 07:19:49;;;;;;;7.03;4.77;;;18.40;99.90;;;;;;5115002;28;20440;-88
2023/05/22 07:22:16;;;;;;;6.43;4.07;;;18.40;99.90;;;;;;5115191;28;20447;-87
2023/05/22 07:24:42;;;;;;;6.73;3.90;;;18.20;99.90;;;;;;5115154;28;20455;-88
2023/05/22 07:27:10;;;;;;;6.70;4.93;;;18.20;99.90;;;;;;5115140;28;20436;-87
2023/05/22 07:29:36;;;;;;;5.67;3.97;;;18.20;99.90;;;;;;5114781;28;20479;-85
2023/05/22 07:32:05;;;;;;;7.43;4.10;;;18.20;99.90;;;;;;5118971;28;20455;-84
2023/05/22 07:34:33;;;;;;;8.00;4.80;;;18.00;99.90;;;;;;5117105;28;20804;-84
2023/05/22 07:37:00;;;;;;;8.43;4.70;;;17.80;99.90;;;;;;5114697;28;20527;-84
2023/05/22 07:39:27;;;;;;;6.30;4.20;;;17.70;99.90;;;;;;5114570;28;20517;-85
2023/05/22 07:41:54;;;;;;;10.97;4.83;;;17.60;99.90;;;;;;5114274;28;20458;-84
2023/05/22 07:44:21;;;;;;;7.00;4.77;;;17.60;99.90;;;;;;5114142;28;20467;-84
2023/05/22 07:46:47;;;;;;;9.97;4.47;;;17.60;99.90;;;;;;5114474;28;20456;-84
2023/05/22 07:49:19;;;;;;;10.33;5.30;;;17.60;99.90;;;;;;5114392;28;20467;-85
2023/05/22 07:51:45;;;;;;;8.93;4.20;;;17.60;99.90;;;;;;5114340;28;20424;-85
2023/05/22 07:54:13;;;;;;;7.00;4.03;;;17.70;99.90;;;;;;5114227;28;20461;-85
2023/05/22 07:56:41;;;;;;;11.63;5.17;;;17.80;99.90;;;;;;5113839;28;20450;-84
2023/05/22 07:59:10;;;;;;;6.10;4.57;;;17.90;99.90;;;;;;5113864;28;20444;-85
2023/05/22 08:01:37;;;;;;;7.83;5.07;;;18.20;99.90;;;;;;5114229;28;20434;-85
2023/05/22 08:04:04;;;;;;;6.63;3.93;;;18.40;99.90;;;;;;5114067;28;20478;-86
2023/05/22 08:06:33;;;;;;;7.10;4.87;;;18.60;99.90;;;;;;5114030;28;20436;-85
2023/05/22 08:09:01;;;;;;;9.80;4.30;;;18.80;99.90;;;;;;5113985;28;20479;-86
2023/05/22 08:11:27;;;;;;;8.50;5.33;;;19.00;99.90;;;;;;5114031;28;20508;-86
2023/05/22 08:13:54;;;;;;;7.80;4.50;;;19.50;99.90;;;;;;5113662;28;20490;-87
2023/05/22 08:16:21;;;;;;;8.30;5.67;;;20.10;99.90;;;;;;5113975;28;20968;-87
2023/05/22 08:18:48;;;;;;;7.10;4.43;;;21.00;99.90;;;;;;5114084;28;20449;-85
2023/05/22 08:21:15;;;;;;;7.77;4.40;;;21.90;99.90;;;;;;5113886;28;20454;-85
2023/05/22 08:23:43;;;;;;;7.27;5.87;;;22.60;99.90;;;;;;5113756;28;20463;-85
2023/05/22 08:26:09;;;;;;;7.97;5.30;;;22.80;99.90;;;;;;5113565;28;20220;-85
2023/05/22 08:28:40;;;;;;;9.30;4.97;;;22.80;99.90;;;;;;5113931;28;20587;-85
2023/05/22 08:31:07;;;;;;;6.82;4.80;;;22.80;99.90;;;;;;5117617;28;20717;-86
2023/05/22 08:33:34;;;;;;;6.43;4.63;;;22.90;99.90;;;;;;5118006;28;20223;-86
2023/05/22 08:36:01;;;;;;;6.03;4.22;;;23.00;99.90;;;;;;5117706;28;20197;-86
2023/05/22 08:38:27;;;;;;;7.32;4.90;;;23.40;99.90;;;;;;5117884;28;20208;-86
2023/05/22 08:40:57;;;;;;;5.15;4.45;;;23.50;99.90;;;;;;5117926;28;20216;-86
2023/05/22 08:43:24;;;;;;;7.57;5.18;;;23.60;99.90;;;;;;5117812;28;20212;-86
2023/05/22 08:45:59;;;;;;;6.50;4.38;;;23.60;99.90;;;;;;5117444;28;20204;-86
2023/05/22 08:48:30;;;;;;;4.35;3.97;;;23.70;99.90;;;;;;5117937;28;20203;-86
2023/05/22 08:50:58;;;;;;;4.90;4.07;;;23.70;99.90;;;;;;5117802;28;20192;-86
2023/05/22 08:53:27;;;;;;;4.05;3.65;;;23.80;99.90;;;;;;5117465;28;20189;-86
2023/05/22 08:55:56;;;;;;;4.50;3.88;;;23.80;99.90;;;;;;5117791;28;20205;-86
2023/05/22 08:58:23;;;;;;;7.35;5.20;;;23.80;99.90;;;;;;5117774;28;20209;-90
2023/05/22 09:00:51;;;;;;;5.28;3.58;;;23.80;99.90;;;;;;5117667;28;20551;-86
2023/05/22 09:03:20;;;;;;;6.78;4.65;;;23.70;99.90;;;;;;5118263;28;20201;-86
2023/05/22 09:05:48;;;;;;;7.95;5.40;;;23.70;99.90;;;;;;5117448;28;20244;-86
2023/05/22 09:08:17;;;;;;;8.38;5.22;;;23.60;99.90;;;;;;5117549;28;20231;-86
2023/05/22 09:10:44;;;;;;;6.53;4.35;;;23.70;99.90;;;;;;5117309;28;20227;-86
2023/05/22 09:13:24;;;;;;;6.22;4.10;;;23.70;99.90;;;;;;5116787;28;20738;-86
2023/05/22 09:15:50;;;;;;;5.18;3.40;;;23.80;99.90;;;;;;5117043;28;20550;-86
2023/05/22 09:18:17;;;;;;;6.68;4.85;;;23.70;99.90;;;;;;5117292;28;20570;-86
2023/05/22 09:20:44;;;;;;;6.60;4.20;;;23.60;99.90;;;;;;5116947;28;20565;-86
2023/05/22 09:23:13;;;;;;;6.00;4.35;;;23.60;99.90;;;;;;5116742;28;20299;-87
2023/05/22 09:25:41;;;;;;;5.28;4.20;;;23.70;99.90;;;;;;5117141;28;20197;-86
2023/05/22 09:28:08;;;;;;;8.48;4.80;;;23.90;99.90;;;;;;5116908;27;20196;-85
2023/05/22 09:30:36;;;;;;;4.90;4.30;;;24.00;99.90;;;;;;5117076;28;20217;-87
2023/05/22 09:33:05;;;;;;;5.40;4.22;;;24.10;99.90;;;;;;5117102;28;20198;-87
2023/05/22 09:35:32;;;;;;;6.43;4.78;;;24.20;99.90;;;;;;5116720;28;20763;-87
2023/05/22 09:37:59;;;;;;;6.80;4.60;;;24.50;99.90;;;;;;5117001;28;20208;-87
2023/05/22 09:40:27;;;;;;;6.22;4.43;;;24.70;99.90;;;;;;5116746;28;20205;-86
2023/05/22 09:42:54;;;;;;;4.90;4.38;;;24.80;99.90;;;;;;5116032;28;20241;-87
2023/05/22 09:45:22;;;;;;;4.22;3.42;;;24.90;99.90;;;;;;5116796;28;20225;-88
2023/05/22 09:47:50;;;;;;;4.60;3.80;;;25.10;99.90;;;;;;5116953;28;20197;-89
2023/05/22 09:50:17;;;;;;;5.25;4.55;;;25.10;99.90;;;;;;5116804;27;20586;-85
2023/05/22 09:52:45;;;;;;;5.13;4.22;;;25.20;99.90;;;;;;5116636;28;20197;-87
2023/05/22 09:55:13;;;;;;;4.13;3.72;;;25.30;99.90;;;;;;5116711;28;20216;-88
2023/05/22 09:57:43;;;;;;;4.60;3.92;;;25.40;99.90;;;;;;5116694;28;20208;-88
2023/05/22 10:00:13;;;;;;;4.82;4.13;;;25.60;99.90;;;;;;5116792;28;20201;-88
2023/05/22 10:02:45;;;;;;;4.72;4.00;;;25.60;99.90;;;;;;5116790;28;20185;-88
2023/05/22 10:05:20;;;;;;;5.85;4.40;;;25.60;99.90;;;;;;5116633;28;20256;-88
2023/05/22 10:07:50;;;;;;;5.30;3.72;;;25.60;99.90;;;;;;5116686;27;20209;-87
2023/05/22 10:10:20;;;;;;;5.43;4.55;;;25.70;99.90;;;;;;5116602;28;20212;-87
2023/05/22 10:12:52;;;;;;;5.32;4.30;;;25.80;99.90;;;;;;5116418;28;20232;-88
2023/05/22 10:15:19;;;;;;;6.97;4.90;;;25.90;99.90;;;;;;5116360;28;20633;-88
2023/05/22 10:17:46;;;;;;;6.53;4.07;;;25.80;99.90;;;;;;5116635;28;20201;-88
2023/05/22 10:20:15;;;;;;;11.18;4.22;;;25.80;99.90;;;;;;5116634;28;20208;-88
2023/05/22 10:22:43;;;;;;;5.22;4.70;;;25.80;99.90;;;;;;5116444;28;20578;-89
2023/05/22 10:25:10;;;;;;;4.10;3.15;;;25.90;99.90;;;;;;5115861;28;20221;-88
2023/05/22 10:27:37;;;;;;;5.60;4.00;;;25.90;99.90;;;;;;5116275;27;20254;-88
2023/05/22 10:30:18;;;;;;;6.47;4.25;;;25.90;99.90;;;;;;5116016;28;20224;-88
2023/05/22 10:32:50;;;;;;;4.28;3.97;;;26.00;99.90;;;;;;5116296;28;20194;-89
2023/05/22 10:35:21;;;;;;;4.32;3.60;;;26.10;99.90;;;;;;5116247;28;20236;-88
2023/05/22 10:37:51;;;;;;;5.25;4.03;;;26.10;99.90;;;;;;5115877;28;20664;-88
2023/05/22 10:40:27;;;;;;;6.22;4.30;;;26.10;99.90;;;;;;5116155;28;20202;-88
2023/05/22 10:42:59;;;;;;;5.50;4.03;;;26.20;99.90;;;;;;5116168;28;20186;-88
2023/05/22 10:45:27;;;;;;;5.55;4.30;;;26.10;99.90;;;;;;5116029;28;20225;-88
2023/05/22 10:48:05;;;;;;;9.18;4.63;;;26.00;99.90;;;;;;5116089;28;20223;-88
2023/05/22 10:50:33;;;;;;;6.85;5.05;;;26.00;99.90;;;;;;5115773;28;20255;-89
2023/05/22 10:53:21;;;;;;;4.97;3.83;;;26.20;99.90;;;;;;5114760;27;20205;-89
2023/05/22 10:55:48;;;;;;;4.75;3.63;;;26.30;99.90;;;;;;5115664;28;20185;-89
2023/05/22 10:58:16;;;;;;;3.47;3.17;;;26.50;99.90;;;;;;5115883;28;20204;-88
2023/05/22 11:00:43;;;;;;;4.38;3.42;;;26.80;99.90;;;;;;5116323;28;20197;-88
2023/05/22 11:03:10;;;;;;;6.30;4.22;;;27.20;99.90;;;;;;5115454;28;20205;-87
2023/05/22 11:05:39;;;;;;;5.82;3.78;;;27.40;99.90;;;;;;5115449;28;20258;-88
2023/05/22 11:08:25;;;;;;;7.80;3.92;;;27.60;99.90;;;;;;5115441;28;20563;-88
2023/05/22 11:10:52;;;;;;;5.50;3.92;;;27.70;99.90;;;;;;5102130;28;20213;-88
2023/05/22 11:13:19;;;;;;;4.38;3.97;;;27.40;99.90;;;;;;5114937;28;20259;-88
2023/05/22 11:15:46;;;;;;;6.43;4.35;;;27.10;99.90;;;;;;5115514;28;20657;-88
2023/05/22 11:18:14;;;;;;;5.18;3.33;;;26.80;99.90;;;;;;5115065;28;20208;-87
2023/05/22 11:20:43;;;;;;;5.88;3.92;;;26.50;99.90;;;;;;5115066;27;20633;-88
2023/05/22 11:23:11;;;;;;;9.73;4.20;;;26.30;99.90;;;;;;5115559;28;20603;-88
2023/05/22 11:25:39;;;;;;;6.03;4.35;;;26.30;99.90;;;;;;5115386;28;20331;-89
2023/05/22 11:28:09;;;;;;;4.57;3.92;;;26.20;99.90;;;;;;5115037;28;20205;-88
2023/05/22 11:30:36;;;;;;;4.20;3.75;;;26.30;99.90;;;;;;5115162;28;20223;-88
2023/05/22 11:33:04;;;;;;;4.65;4.15;;;26.20;99.90;;;;;;5115222;28;20201;-88
2023/05/22 11:35:31;;;;;;;4.35;4.00;;;26.20;99.90;;;;;;5115089;28;20783;-89
2023/05/22 11:38:03;;;;;;;5.53;4.30;;;26.10;99.90;;;;;;5115259;28;20201;-88
2023/05/22 11:40:31;;;;;;;5.40;3.78;;;26.20;99.90;;;;;;5115126;28;20177;-88
2023/05/22 11:42:57;;;;;;;6.75;3.85;;;26.20;99.90;;;;;;5115307;28;20205;-89
2023/05/22 11:45:25;;;;;;;7.38;3.90;;;26.30;99.90;;;;;;5114957;28;20248;-88
2023/05/22 11:47:52;;;;;;;4.57;3.70;;;26.30;99.90;;;;;;5114949;28;20205;-88
2023/05/22 11:50:19;;;;;;;3.83;3.45;;;26.40;99.90;;;;;;5114978;28;20220;-89
2023/05/22 11:52:46;;;;;;;4.35;3.60;;;26.40;99.90;;;;;;5114691;28;20211;-89
2023/05/22 11:55:14;;;;;;;4.60;4.20;;;26.40;99.90;;;;;;5114718;28;20225;-88
2023/05/22 11:57:41;;;;;;;3.88;2.78;;;26.50;99.90;;;;;;5114781;28;20201;-89
2023/05/22 12:00:09;;;;;;;5.97;4.32;;;26.50;99.90;;;;;;5114774;28;20200;-89
2023/05/22 12:02:36;;;;;;;5.47;3.92;;;26.40;99.90;;;;;;5114883;28;20201;-88
2023/05/22 12:05:03;;;;;;;5.68;3.72;;;26.50;99.90;;;;;;5115966;28;20228;-89
2023/05/22 12:07:30;;;;;;;4.35;3.95;;;26.50;99.90;;;;;;5117012;28;20200;-88
2023/05/22 12:09:57;;;;;;;4.47;3.78;;;26.50;99.90;;;;;;5114765;28;20217;-90
2023/05/22 12:12:26;;;;;;;4.90;3.60;;;26.60;99.90;;;;;;5114280;28;20812;-88
2023/05/22 12:14:53;;;;;;;4.38;3.70;;;26.60;99.90;;;;;;5114631;28;20220;-89
2023/05/22 12:17:20;;;;;;;9.23;4.60;;;26.50;99.90;;;;;;5114607;28;20213;-89
2023/05/22 12:19:47;;;;;;;3.80;2.92;;;26.50;99.90;;;;;;5114624;28;20200;-88
2023/05/22 12:22:14;;;;;;;4.65;3.22;;;26.50;99.90;;;;;;5114512;28;20205;-87
2023/05/22 12:24:44;;;;;;;5.22;4.22;;;26.60;99.90;;;;;;5114417;28;20224;-89
2023/05/22 12:27:13;;;;;;;4.03;2.80;;;26.50;99.90;;;;;;5114695;28;20227;-89
2023/05/22 12:29:42;;;;;;;3.75;3.35;;;26.50;99.90;;;;;;5114383;28;20327;-88
2023/05/22 12:32:11;;;;;;;3.70;3.40;;;26.50;99.90;;;;;;5114117;28;20304;-89
2023/05/22 12:34:43;;;;;;;4.43;3.38;;;26.40;99.90;;;;;;5114212;28;20223;-89
2023/05/22 12:37:18;;;;;;;3.22;2.97;;;26.30;99.90;;;;;;5114204;28;20664;-89
2023/05/22 12:39:53;;;;;;;2.83;2.63;;;26.20;99.90;;;;;;5114579;28;20193;-89
2023/05/22 12:42:20;;;;;;;3.70;3.20;;;26.10;99.90;;;;;;5114510;28;20186;-88
2023/05/22 12:44:50;;;;;;;3.60;2.88;;;26.10;99.90;;;;;;5114209;28;20220;-89
2023/05/22 12:47:17;;;;;;;3.53;3.22;;;26.10;99.90;;;;;;5114438;28;20209;-89
2023/05/22 12:49:44;;;;;;;6.55;3.05;;;26.10;99.90;;;;;;5114122;28;20677;-88
2023/05/22 12:52:11;;;;;;;5.93;3.42;;;26.10;99.90;;;;;;5114318;28;20189;-87